Base de Operações Aéreas da PRF Heliport

SD7T · Rio Grande do Sul, 巴西

METAR的历史 SD7T · Base de Operações Aéreas da PRF Heliport

下面你可以看到过去几天的METARs。 选择年份以浏览从2007年开始的旧METAR。

2024年7月15日

时间 代码 天气 温度 能见度 天花板 METAR/SPECI
08:00
V
12 °C 10 km+ 9.000 ft 120° 120° 2 kt METAR SBCO 151100Z 12002KT 9999 SCT035 BKN090 12/12 Q1030
07:00
V
12 °C 10 km+ - 120° 120° 3 kt METAR SBCO 151000Z 12003KT CAVOK 12/12 Q1030
06:00
V
13 °C 10 km+ 3.500 ft 150° 150° 4 kt METAR SBCO 150900Z 15004KT 9999 OVC035 13/12 Q1029
05:00
V
13 °C 10 km+ 4.400 ft 140° 140° 3 kt METAR SBCO 150800Z 14003KT 9999 OVC044 13/12 Q1028
04:00
V
13 °C 10 km+ 3.500 ft 140° 140° 4 kt METAR SBCO 150700Z 14004KT 9999 OVC035 13/12 Q1028
03:00
V
13 °C 10 km+ 3.500 ft 120° 120° 2 kt METAR SBCO 150600Z 12002KT 9999 OVC035 13/13 Q1028
02:00
M
13 °C 10 km+ 3.000 ft 130° 130° 3 kt METAR SBCO 150500Z 13003KT 9999 OVC030 13/13 Q1028
01:00
V
13 °C 10 km+ 4.500 ft 150° 150° 4 kt METAR SBCO 150400Z 15004KT 9999 FEW015 OVC045 13/13 Q1028
00:00
V
13 °C 10 km+ 5.000 ft 150° 150° 4 kt METAR SBCO 150300Z 15004KT 9999 SCT015 OVC050 13/13 Q1028

2024年7月14日

时间 代码 天气 温度 能见度 天花板 METAR/SPECI
23:00
M
13 °C 10 km+ 3.000 ft 150° 150° 4 kt METAR SBCO 150200Z 15004KT 9999 SCT010 OVC030 13/13 Q1028
22:00
V
13 °C 9 km 4.300 ft 150° 150° 4 kt METAR SBCO 150100Z 15004KT 9000 SCT012 OVC043 13/13 Q1028
21:00
M
13 °C 10 km+ 2.300 ft 120° 120° 6 kt METAR SBCO 150000Z 12006KT 9999 BKN023 OVC080 13/13 Q1027
20:00
V
14 °C 10 km+ 8.000 ft 160° 160° 5 kt METAR SBCO 142300Z 16005KT 9999 -RA SCT025 OVC080 14/13 Q1027
19:00
V
14 °C 10 km+ 8.000 ft 150° 150° 5 kt METAR SBCO 142200Z 15005KT 9999 -RA SCT020 OVC080 14/13 Q1027
18:00
V
14 °C 10 km+ 8.000 ft 140° 140° 5 kt METAR SBCO 142100Z 14005KT 9999 SCT016 OVC080 14/13 Q1026
17:00
V
15 °C 10 km+ 8.000 ft 120° 120° 9 kt METAR SBCO 142000Z 12009KT 9999 -RA SCT016 OVC080 15/13 Q1026
16:00
V
15 °C 10 km+ 7.000 ft 120° 120° 9 kt METAR SBCO 141900Z 12009KT 9999 -RA SCT015 OVC070 15/14 Q1025
15:00
V
15 °C 10 km+ 7.000 ft 130° 130° 9 kt METAR SBCO 141800Z 13009KT 9999 -RA SCT017 OVC070 15/14 Q1025
14:00
V
15 °C 10 km+ 7.000 ft 110° 110° 8 kt METAR SBCO 141700Z 11008KT 9999 -RA SCT017 SCT035 OVC070 15/13 Q1025
13:00
M
16 °C 10 km+ 1.400 ft 110° 110° 12 kt METAR SBCO 141600Z 11012KT 9999 BKN014 BKN035 OVC070 16/13 Q1025
12:00
M
15 °C 10 km+ 1.200 ft 120° 120° 13 kt METAR SBCO 141500Z 12013KT 9999 BKN012 BKN035 BKN070 15/13 Q1026
11:00
V
15 °C 9 km 4.000 ft 120° 120° 12 kt METAR SBCO 141400Z 12012KT 9000 -RA SCT010 BKN040 BKN070 15/13 Q1026
10:00
V
14 °C 9 km 4.500 ft 120° 120° 9 kt METAR SBCO 141300Z 12009KT 9000 -RA SCT010 BKN045 OVC070 14/13 Q1027
09:00
M
14 °C 10 km+ 1.000 ft 120° 120° 11 kt METAR SBCO 141200Z 12011KT 9999 BKN010 BKN050 OVC080 14/13 Q1026
08:00
M
13 °C 10 km+ 2.500 ft 120° 120° 11 kt METAR SBCO 141100Z 12011KT 9999 -RA SCT009 BKN025 OVC050 13/13 Q1025
07:00
M
13 °C 9 km 3.000 ft 120° 120° 10 kt METAR SBCO 141000Z 12010KT 9000 -RA FEW007 BKN030 OVC060 13/13 Q1025
06:00
I
14 °C 7 km 700 ft 120° 120° 9 kt METAR SBCO 140900Z 12009KT 7000 -RA BKN007 OVC080 14/13 Q1025
05:00
I
14 °C 9 km 700 ft 110° 110° 12 kt METAR SBCO 140800Z 11012KT 9000 BKN007 14/13 Q1024
04:00
I
14 °C 9 km 600 ft 100° 100° 12 kt METAR SBCO 140700Z 10012KT 9000 OVC006 14/13 Q1024
03:00
M
13 °C 6 km 1.500 ft 100° 100° 12 kt METAR SBCO 140600Z 10012KT 6000 -RA SCT006 BKN015 OVC080 13/13 Q1025
02:00
M
13 °C 7 km 1.500 ft 020° 020° 7 kt METAR SBCO 140500Z 02007KT 7000 FEW004 BKN015 OVC080 13/13 Q1026
01:00
M
13 °C 7 km 1.500 ft 100° 100° 7 kt METAR SBCO 140400Z 10007KT 7000 -RA FEW004 BKN015 OVC080 13/13 Q1027
00:00
L
13 °C 4 km 400 ft 110° 110° 9 kt METAR SBCO 140300Z 11009KT 4000 -RA BKN004 OVC015 13/13 Q1027

2024年7月13日

时间 代码 天气 温度 能见度 天花板 METAR/SPECI
23:00
L
13 °C 2 km 400 ft 110° 110° 3 kt METAR SBCO 140200Z 11003KT 2000 -RA BR BKN004 OVC040 13/13 Q1028 REDZ
22:00
L
12 °C 1 km 200 ft Var Var 2 kt METAR SBCO 140100Z VRB02KT 1000 R31/P2000 R13/P2000 DZ BR OVC002 12/12 Q1028
21:00
L
12 °C 2 km 300 ft 220° 220° 4 kt METAR SBCO 140000Z 22004KT 2000 -DZ BR OVC003 12/12 Q1028
20:00
I
12 °C 2 km 600 ft 030° 030° 3 kt METAR SBCO 132300Z 03003KT 350V070 2000 -DZ BR OVC006 12/12 Q1028
19:00
I
12 °C 4 km 600 ft 120° 120° 3 kt METAR SBCO 132200Z 12003KT 4000 -DZ BR OVC006 12/12 Q1028
18:00
I
12 °C 4 km 600 ft 100° 100° 1 kt METAR SBCO 132100Z 10001KT 4000 BR OVC006 12/11 Q1027
17:00
I
12 °C 6 km 600 ft Var Var 1 kt METAR SBCO 132000Z VRB01KT 6000 OVC006 12/11 Q1028
16:00
I
12 °C 6 km 600 ft 160° 160° 4 kt METAR SBCO 131900Z 16004KT 6000 OVC006 12/11 Q1028
15:00
I
12 °C 8 km 700 ft 130° 130° 3 kt METAR SBCO 131800Z 13003KT 8000 OVC007 12/11 Q1029
14:00
I
12 °C 8 km 800 ft 160° 160° 3 kt METAR SBCO 131700Z 16003KT 8000 OVC008 12/10 Q1029
13:00
I
12 °C 8 km 800 ft 160° 160° 5 kt METAR SBCO 131600Z 16005KT 8000 OVC008 12/10 Q1030
12:00
I
11 °C 8 km 800 ft 140° 140° 3 kt METAR SBCO 131500Z 14003KT 8000 OVC008 11/09 Q1031
11:00
I
11 °C 8 km 700 ft 160° 160° 4 kt METAR SBCO 131400Z 16004KT 090V190 8000 OVC007 11/09 Q1032
10:00
I
10 °C 9 km 800 ft 180° 180° 5 kt METAR SBCO 131300Z 18005KT 9000 OVC008 10/09 Q1032
09:00
I
10 °C 10 km+ 900 ft 160° 160° 5 kt METAR SBCO 131200Z 16005KT 9999 OVC009 10/09 Q1032
08:00
I
10 °C 10 km+ 900 ft 180° 180° 5 kt METAR SBCO 131100Z 18005KT 150V210 9999 OVC009 10/08 Q1031
07:00
I
10 °C 10 km+ 900 ft 150° 150° 2 kt METAR SBCO 131000Z 15002KT 9999 OVC009 10/09 Q1031
06:00
M
10 °C 10 km+ 1.100 ft 150° 150° 4 kt METAR SBCO 130900Z 15004KT 9999 OVC011 10/08 Q1030
05:00
M
10 °C 10 km+ 1.300 ft 160° 160° 3 kt METAR SBCO 130800Z 16003KT 9999 OVC013 10/08 Q1031
04:00
M
10 °C 10 km+ 1.300 ft 140° 140° 2 kt METAR SBCO 130700Z 14002KT 9999 OVC013 10/09 Q1031
03:00
M
10 °C 10 km+ 1.500 ft 260° 260° 3 kt METAR SBCO 130600Z 26003KT 9999 OVC015 10/09 Q1032
报告变更